Accueil
METAR-TAF:

METAR-TAF

Aéroports :

Biarritz, France

Aéroport de Biarritz Pays Basque

latitude: 43-28N, longitude: 001-32W, altitude: 75 m

Observation

Le bulletin a été fait il y a 33 minutes, à 01:30 UTC
Vent 4 kt de sud-est
Température 10°C
Humidité 93%
Pression 1024 hPa
Visibilité 10 km ou plus
pas de nuages en-dessous de 1500 mètres et pas de cumulonimbus.

METAR: LFBZ 200130Z AUTO 13004KT CAVOK 10/09 Q1024 TEMPO 1500 BCFG

Heure: 04:03 (02:03 UTC)

Prévision

Le bulletin a été fait il y a 3 heures et 3 minutes, à 23:00 UTC
Prévision valable du 20 à 00 UTC au 20 à 24 UTC
Vent 5 kt de est
Visibilité 10 km ou plus
pas de nuages en-dessous de 1500 mètres et pas de cumulonimbus.
Probabilité 30%
du 20 à 02 UTC au 20 à 06 UTC
Visibilité: 1500 m
bancs de brouillard

TAF: LFBZ 192300Z 2000/2024 09005KT CAVOK PROB30 2002/2006 1500 BCFG

Observations et prévisions météorologiques de plus de 4000 aéroports (messages METAR et TAF).

Les stations disponibles sont représentées par des disques jaunes et rouges sur la carte.

Passer la souris dessus pour voir le nom de la station.

Cliquer dessus pour voir les observations et prévisions météorologiques.

Pour changer de carte: cliquez sur les boutons verts avec une croix noire pour zoomer, sur le bouton vert avec un tiret pour effectuer un zoom arrière, ou sur les flèches vertes pour les cartes adjacentes.


METAR-TAF: